Accueil
METAR-TAF:

METAR-TAF

Aéroports :

Aéroport de Luxembourg-Findel

Luxembourg, Luxembourg

latitude: 49-37N, longitude: 006-13E, altitude: 376 m

Observation

Le bulletin a été fait il y a 49 minutes, à 12:20 UTC
Vent 6 kt de nord/nord-est, variant entre nord-ouest et est/sud-est
Température 24°C
Humidité 38%
Pression 1026 hPa
Visibilité 10 km ou plus
pas de nuages en-dessous de 1500 mètres et pas de cumulonimbus.

METAR: ELLX 221220Z 02006KT 320V120 CAVOK 24/09 Q1026 NOSIG

Heure: 15:09 (13:09 UTC)

Prévision

Le bulletin a été fait il y a 2 heures et 9 minutes, à 11:00 UTC
Prévision valable du 22 à 12 UTC au 23 à 18 UTC
Vent 9 kt de est
Visibilité 10 km ou plus
pas de nuages en-dessous de 1500 mètres et pas de cumulonimbus.

TAF: ELLX 221100Z 2212/2318 08009KT CAVOK

Observations et prévisions météorologiques de plus de 4000 aéroports (messages METAR et TAF).

Les stations disponibles sont représentées par des disques jaunes et rouges sur la carte.

Passer la souris dessus pour voir le nom de la station.

Cliquer dessus pour voir les observations et prévisions météorologiques.

Pour changer de carte: cliquez sur les boutons verts avec une croix noire pour zoomer, sur le bouton vert avec un tiret pour effectuer un zoom arrière, ou sur les flèches vertes pour les cartes adjacentes.


METAR-TAF: